createdAt,value
2023-02-17T00:01:01.753Z,7.41
2023-02-17T00:03:28.441Z,7.35
2023-02-17T00:05:55.067Z,7.31
2023-02-17T00:08:21.699Z,7.16
2023-02-17T00:10:57.057Z,7.04
2023-02-17T00:13:23.664Z,7.04
2023-02-17T00:15:50.240Z,6.97
2023-02-17T00:18:16.836Z,6.91
2023-02-17T00:20:43.414Z,6.86
2023-02-17T00:23:10.050Z,6.81
2023-02-17T00:25:40.587Z,6.78
2023-02-17T00:28:07.706Z,6.86
2023-02-17T00:30:34.530Z,6.75
2023-02-17T00:33:01.324Z,6.79
2023-02-17T00:35:27.970Z,6.69
2023-02-17T00:37:54.638Z,6.67
2023-02-17T00:40:21.654Z,6.68
2023-02-17T00:42:48.993Z,6.69
2023-02-17T00:45:15.706Z,6.72
2023-02-17T00:47:42.653Z,6.71
2023-02-17T00:50:09.672Z,6.76
2023-02-17T00:52:36.330Z,6.69
2023-02-17T00:55:03.118Z,6.62
2023-02-17T00:57:32.317Z,6.67
2023-02-17T00:59:59.268Z,6.67
2023-02-17T01:02:25.959Z,6.68
2023-02-17T01:04:53.515Z,6.65
2023-02-17T01:07:20.515Z,6.65
2023-02-17T01:09:47.198Z,6.67
2023-02-17T01:12:14.347Z,6.65
2023-02-17T01:14:41.056Z,6.65
2023-02-17T01:17:07.717Z,6.65
2023-02-17T01:20:43.840Z,6.68
2023-02-17T01:23:11.850Z,6.73
2023-02-17T01:25:40.377Z,6.73
2023-02-17T01:28:19.841Z,6.79
2023-02-17T01:30:47.786Z,6.81
2023-02-17T01:33:14.697Z,6.78
2023-02-17T01:35:41.501Z,6.78
2023-02-17T01:38:08.108Z,6.78
2023-02-17T01:40:34.804Z,6.82
2023-02-17T01:43:02.796Z,6.83
2023-02-17T01:45:41.485Z,6.81
2023-02-17T01:48:12.917Z,6.78
2023-02-17T01:50:46.988Z,6.76
2023-02-17T01:53:16.980Z,6.81
2023-02-17T01:55:44.779Z,6.79
2023-02-17T01:58:15.802Z,6.82
2023-02-17T02:00:43.141Z,6.79
2023-02-17T02:03:36.179Z,6.78
2023-02-17T02:06:07.992Z,6.76
2023-02-17T02:08:41.455Z,6.75
2023-02-17T02:11:08.037Z,6.75
2023-02-17T02:13:34.676Z,6.73
2023-02-17T02:16:20.238Z,6.76
2023-02-17T02:19:30.322Z,6.73
2023-02-17T02:22:15.696Z,6.73
2023-02-17T02:25:07.431Z,6.71
2023-02-17T02:27:53.003Z,6.67
2023-02-17T02:30:25.564Z,6.69
2023-02-17T02:33:04.372Z,6.68
2023-02-17T02:35:51.578Z,6.68
2023-02-17T02:38:25.866Z,6.67
2023-02-17T02:41:00.109Z,6.72
2023-02-17T02:43:26.918Z,6.72
2023-02-17T02:45:53.571Z,6.68
2023-02-17T02:48:20.176Z,6.65
2023-02-17T02:50:55.919Z,6.65
2023-02-17T02:53:34.567Z,6.59
2023-02-17T02:56:28.167Z,6.61
2023-02-17T02:59:05.879Z,6.64
2023-02-17T03:02:20.176Z,6.67
2023-02-17T03:04:56.048Z,6.71
2023-02-17T03:07:31.580Z,6.64
2023-02-17T03:10:00.180Z,6.58
2023-02-17T03:12:28.142Z,6.62
2023-02-17T03:15:06.214Z,6.69
2023-02-17T03:17:34.768Z,6.64
2023-02-17T03:20:03.664Z,6.64
2023-02-17T03:22:35.219Z,6.64
2023-02-17T03:25:02.110Z,6.64
2023-02-17T03:27:28.941Z,6.64
2023-02-17T03:29:55.622Z,6.64
2023-02-17T03:32:22.502Z,6.67
2023-02-17T03:34:49.124Z,6.65
2023-02-17T03:37:15.728Z,6.67
2023-02-17T03:39:42.335Z,6.69
2023-02-17T03:42:09.102Z,6.78
2023-02-17T03:44:35.775Z,6.81
2023-02-17T03:47:02.532Z,6.75
2023-02-17T03:49:29.154Z,6.73
2023-02-17T03:51:55.741Z,6.72
2023-02-17T03:54:22.430Z,6.76
2023-02-17T03:56:48.983Z,6.75
2023-02-17T03:59:15.637Z,6.72
2023-02-17T04:01:42.450Z,6.72
2023-02-17T04:04:09.368Z,6.72
2023-02-17T04:06:36.007Z,6.78
2023-02-17T04:09:03.383Z,6.79
2023-02-17T04:11:30.024Z,6.81
2023-02-17T04:13:56.570Z,6.83
2023-02-17T04:16:23.239Z,6.92
2023-02-17T04:18:49.868Z,6.83
2023-02-17T04:21:16.634Z,6.83
2023-02-17T04:23:43.221Z,6.89
2023-02-17T04:26:09.966Z,6.88
2023-02-17T04:28:41.705Z,6.88
2023-02-17T04:31:09.084Z,6.92
2023-02-17T04:33:35.919Z,6.89
2023-02-17T04:36:02.475Z,6.93
2023-02-17T04:38:30.496Z,6.91
2023-02-17T04:40:58.193Z,6.96
2023-02-17T04:43:26.542Z,6.93
2023-02-17T04:45:53.718Z,6.96
2023-02-17T04:48:20.662Z,6.96
2023-02-17T04:50:47.445Z,6.95
2023-02-17T04:53:14.448Z,6.96
2023-02-17T04:55:41.830Z,7.00
2023-02-17T04:58:09.623Z,7.00
2023-02-17T05:00:36.813Z,7.03
2023-02-17T05:03:03.802Z,7.03
2023-02-17T05:05:31.011Z,7.07
2023-02-17T05:07:57.769Z,7.04
2023-02-17T05:10:24.395Z,7.07
2023-02-17T05:12:51.038Z,7.14
2023-02-17T05:15:18.324Z,7.12
2023-02-17T05:17:45.522Z,7.16
2023-02-17T05:20:12.166Z,7.22
2023-02-17T05:22:38.851Z,7.20
2023-02-17T05:25:05.890Z,7.16
2023-02-17T05:27:33.613Z,7.17
2023-02-17T05:30:00.312Z,7.16
2023-02-17T05:32:27.682Z,7.14
2023-02-17T05:34:54.258Z,7.14
2023-02-17T05:37:20.951Z,7.19
2023-02-17T05:39:47.516Z,7.17
2023-02-17T05:42:14.377Z,7.17
2023-02-17T05:44:41.042Z,7.12
2023-02-17T05:47:07.774Z,7.09
2023-02-17T05:49:34.458Z,7.09
2023-02-17T05:52:01.839Z,7.07
2023-02-17T05:54:28.380Z,7.09
2023-02-17T05:56:54.892Z,7.14
2023-02-17T05:59:21.574Z,7.13
2023-02-17T06:01:48.365Z,7.10
2023-02-17T06:04:15.026Z,7.07
2023-02-17T06:06:41.677Z,7.03
2023-02-17T06:09:08.326Z,7.06
2023-02-17T06:11:34.941Z,7.07
2023-02-17T06:14:01.503Z,7.12
2023-02-17T06:16:28.443Z,7.09
2023-02-17T06:18:55.031Z,7.10
2023-02-17T06:21:21.600Z,7.10
2023-02-17T06:23:48.216Z,7.14
2023-02-17T06:26:14.763Z,7.14
2023-02-17T06:28:41.391Z,7.13
2023-02-17T06:31:08.196Z,7.13
2023-02-17T06:33:35.620Z,7.13
2023-02-17T06:36:02.464Z,7.16
2023-02-17T06:38:29.048Z,7.22
2023-02-17T06:40:55.737Z,7.20
2023-02-17T06:43:22.312Z,7.22
2023-02-17T06:45:49.040Z,7.24
2023-02-17T06:48:15.662Z,7.27
2023-02-17T06:50:42.334Z,7.26
2023-02-17T06:53:09.012Z,7.30
2023-02-17T06:55:37.164Z,7.28
2023-02-17T06:58:03.929Z,7.34
2023-02-17T07:00:30.842Z,7.41
2023-02-17T07:02:57.617Z,7.46
2023-02-17T07:05:24.327Z,7.44
2023-02-17T07:07:53.182Z,7.46
2023-02-17T07:10:19.948Z,7.48
2023-02-17T07:12:46.513Z,7.48
2023-02-17T07:15:14.292Z,7.50
2023-02-17T07:17:42.172Z,7.57
2023-02-17T07:20:09.414Z,7.55
2023-02-17T07:22:36.141Z,7.60
2023-02-17T07:25:03.262Z,7.64
2023-02-17T07:27:30.191Z,7.61
2023-02-17T07:29:56.894Z,7.63
2023-02-17T07:32:23.727Z,7.67
2023-02-17T07:34:50.303Z,7.70
2023-02-17T07:37:16.911Z,7.72
2023-02-17T07:39:43.556Z,7.75
2023-02-17T07:42:10.512Z,7.74
2023-02-17T07:44:37.490Z,7.79
2023-02-17T07:47:04.292Z,7.79
2023-02-17T07:49:31.113Z,7.82
2023-02-17T07:51:57.731Z,7.89
2023-02-17T07:54:24.354Z,7.94
2023-02-17T07:56:51.008Z,7.94
2023-02-17T07:59:18.531Z,8.03
2023-02-17T08:01:45.416Z,8.01
2023-02-17T08:04:12.164Z,8.03
2023-02-17T08:06:41.931Z,8.06
2023-02-17T08:09:29.200Z,8.10
2023-02-17T08:12:14.679Z,8.07
2023-02-17T08:14:41.329Z,8.15
2023-02-17T08:17:08.265Z,8.13
2023-02-17T08:19:47.630Z,8.17
2023-02-17T08:22:17.293Z,8.17
2023-02-17T08:24:44.172Z,8.22
2023-02-17T08:27:11.143Z,8.21
2023-02-17T08:29:37.858Z,8.23
2023-02-17T08:32:04.757Z,8.21
2023-02-17T08:34:34.257Z,8.21
2023-02-17T08:37:01.817Z,8.25
2023-02-17T08:39:28.669Z,8.29
2023-02-17T08:41:55.549Z,8.36
2023-02-17T08:44:22.485Z,8.39
2023-02-17T08:46:51.016Z,8.37
2023-02-17T08:49:21.166Z,8.44
2023-02-17T08:51:48.355Z,8.49
2023-02-17T08:54:15.515Z,8.47
2023-02-17T08:56:43.458Z,8.54
2023-02-17T08:59:11.593Z,8.56
2023-02-17T09:01:39.328Z,8.56
2023-02-17T09:04:07.507Z,8.59
2023-02-17T09:06:38.397Z,8.57
2023-02-17T09:09:07.160Z,8.64
2023-02-17T09:11:33.713Z,8.70
2023-02-17T09:14:00.297Z,8.67
2023-02-17T09:16:27.112Z,8.73
2023-02-17T09:18:55.085Z,8.81
2023-02-17T09:21:22.287Z,8.77
2023-02-17T09:23:49.888Z,8.83
2023-02-17T09:26:18.999Z,8.83
2023-02-17T09:28:46.571Z,8.81
2023-02-17T09:31:22.330Z,8.84
2023-02-17T09:33:49.945Z,8.80
2023-02-17T09:36:20.182Z,8.87
2023-02-17T09:38:47.431Z,8.85
2023-02-17T09:41:19.881Z,8.75
2023-02-17T09:43:47.254Z,8.75
2023-02-17T09:46:20.611Z,8.71
2023-02-17T09:48:49.406Z,8.80
2023-02-17T09:51:39.150Z,8.71
2023-02-17T09:54:15.645Z,8.81
2023-02-17T09:56:46.129Z,8.83
2023-02-17T09:59:24.237Z,8.87
2023-02-17T10:01:52.374Z,8.81
2023-02-17T10:04:42.697Z,8.89
2023-02-17T10:07:17.484Z,8.81
2023-02-17T10:09:55.656Z,8.83
2023-02-17T10:12:27.187Z,8.83
2023-02-17T10:15:03.431Z,8.88
2023-02-17T10:17:37.748Z,8.75
2023-02-17T10:20:04.379Z,8.84
2023-02-17T10:22:32.326Z,8.83
2023-02-17T10:25:01.553Z,8.83
2023-02-17T10:27:39.866Z,8.84
2023-02-17T10:30:06.609Z,8.85
2023-02-17T10:32:50.108Z,8.88
2023-02-17T10:35:33.068Z,8.89
2023-02-17T10:38:13.973Z,8.88
2023-02-17T10:40:42.427Z,8.88
2023-02-17T10:43:10.732Z,9.00
2023-02-17T10:45:40.983Z,9.11
2023-02-17T10:48:20.894Z,9.08
2023-02-17T10:50:48.712Z,9.05
2023-02-17T10:53:20.024Z,9.05
2023-02-17T10:56:09.952Z,9.08
2023-02-17T10:58:52.461Z,9.14
2023-02-17T11:01:19.716Z,9.15
2023-02-17T11:03:46.301Z,9.14
2023-02-17T11:06:20.637Z,9.21
2023-02-17T11:08:52.013Z,9.15
2023-02-17T11:11:22.894Z,9.19
2023-02-17T11:14:08.130Z,9.14
2023-02-17T11:16:39.479Z,9.21
2023-02-17T11:19:18.509Z,9.16
2023-02-17T11:21:45.307Z,9.33
2023-02-17T11:24:12.409Z,9.28
2023-02-17T11:26:39.414Z,9.31
2023-02-17T11:29:17.595Z,9.31
2023-02-17T11:31:58.687Z,9.36
2023-02-17T11:34:30.293Z,9.40
2023-02-17T11:37:13.764Z,9.42
2023-02-17T11:39:46.789Z,9.38
2023-02-17T11:42:23.488Z,9.40
2023-02-17T11:44:51.522Z,9.52
2023-02-17T11:47:48.504Z,9.49
2023-02-17T11:50:40.921Z,9.52
2023-02-17T11:53:14.850Z,9.53
2023-02-17T11:56:02.854Z,9.56
2023-02-17T11:59:01.032Z,9.59
2023-02-17T12:02:08.533Z,9.69
2023-02-17T12:05:00.004Z,9.76
2023-02-17T12:07:35.044Z,9.77
2023-02-17T12:10:05.540Z,9.87
2023-02-17T12:13:03.201Z,10.00
2023-02-17T12:15:42.129Z,10.14
2023-02-17T12:18:33.325Z,10.18
2023-02-17T12:21:29.167Z,10.15
2023-02-17T12:24:20.287Z,10.14
2023-02-17T12:26:59.257Z,10.20
2023-02-17T12:30:10.467Z,10.31
2023-02-17T12:33:14.247Z,10.34
2023-02-17T12:35:44.647Z,10.40
2023-02-17T12:38:16.951Z,10.49
2023-02-17T12:41:07.721Z,10.54
2023-02-17T12:43:59.601Z,10.66
2023-02-17T12:46:37.043Z,10.68
2023-02-17T12:49:11.501Z,10.75
2023-02-17T12:51:43.285Z,10.77
2023-02-17T12:54:12.925Z,10.79
2023-02-17T12:56:39.477Z,10.76
2023-02-17T12:59:22.557Z,10.80
2023-02-17T13:02:13.499Z,10.85
2023-02-17T13:04:42.306Z,10.89
2023-02-17T13:07:21.421Z,10.92
2023-02-17T13:09:50.130Z,10.99
2023-02-17T13:12:23.035Z,11.04
2023-02-17T13:14:55.341Z,11.16
2023-02-17T13:17:37.462Z,11.23
2023-02-17T13:20:25.866Z,11.23
2023-02-17T13:23:04.665Z,11.24
2023-02-17T13:25:36.310Z,11.28
2023-02-17T13:28:18.100Z,11.27
2023-02-17T13:30:46.195Z,11.30
2023-02-17T13:33:30.103Z,11.31
2023-02-17T13:35:56.820Z,11.35
2023-02-17T13:38:31.357Z,11.38
2023-02-17T13:41:01.579Z,11.45
2023-02-17T13:43:30.644Z,11.44
2023-02-17T13:46:00.572Z,11.45
2023-02-17T13:48:28.676Z,11.47
2023-02-17T13:50:58.246Z,11.50
2023-02-17T13:53:43.046Z,11.45
2023-02-17T13:56:22.864Z,11.54
2023-02-17T13:58:49.542Z,11.54
2023-02-17T14:01:20.593Z,11.54
2023-02-17T14:03:52.517Z,11.48
2023-02-17T14:06:37.473Z,11.43
2023-02-17T14:09:27.466Z,11.45
2023-02-17T14:11:55.657Z,11.53
2023-02-17T14:14:29.424Z,11.45
2023-02-17T14:17:04.882Z,11.48
2023-02-17T14:19:46.102Z,11.33
2023-02-17T14:22:29.143Z,11.26
2023-02-17T14:25:08.479Z,11.26
2023-02-17T14:28:01.750Z,11.22
2023-02-17T14:30:33.341Z,11.17
2023-02-17T14:33:06.980Z,11.12
2023-02-17T14:35:35.458Z,11.09
2023-02-17T14:38:21.567Z,11.10
2023-02-17T14:40:48.741Z,11.10
2023-02-17T14:43:15.571Z,11.09
2023-02-17T14:45:42.377Z,11.03
2023-02-17T14:48:09.211Z,11.03
2023-02-17T14:50:42.285Z,11.02
2023-02-17T14:53:13.582Z,10.97
2023-02-17T14:55:50.556Z,11.00
2023-02-17T14:58:22.247Z,11.00
2023-02-17T15:00:49.393Z,10.93
2023-02-17T15:03:16.579Z,10.96
2023-02-17T15:05:44.246Z,10.96
2023-02-17T15:08:14.936Z,11.02
2023-02-17T15:10:42.292Z,11.02
2023-02-17T15:13:20.762Z,11.02
2023-02-17T15:15:49.279Z,11.06
2023-02-17T15:18:18.052Z,11.00
2023-02-17T15:20:46.975Z,10.92
2023-02-17T15:23:19.143Z,10.92
2023-02-17T15:25:46.496Z,10.83
2023-02-17T15:28:16.001Z,10.82
2023-02-17T15:30:48.583Z,10.82
2023-02-17T15:33:15.271Z,10.77
2023-02-17T15:35:43.072Z,10.85
2023-02-17T15:38:14.498Z,10.82
2023-02-17T15:40:42.293Z,10.80
2023-02-17T15:43:15.162Z,10.86
2023-02-17T15:45:41.916Z,10.89
2023-02-17T15:48:23.909Z,10.92
2023-02-17T15:50:51.042Z,11.03
2023-02-17T15:53:18.211Z,11.00
2023-02-17T15:55:45.400Z,11.07
2023-02-17T15:58:21.140Z,11.12
2023-02-17T16:00:51.058Z,11.13
2023-02-17T16:03:18.381Z,11.20
2023-02-17T16:05:45.145Z,11.20
2023-02-17T16:08:12.016Z,11.16
2023-02-17T16:10:41.381Z,11.12
2023-02-17T16:13:14.341Z,11.14
2023-02-17T16:15:41.720Z,11.19
2023-02-17T16:18:19.465Z,11.19
2023-02-17T16:20:46.117Z,11.19
2023-02-17T16:23:12.910Z,11.22
2023-02-17T16:25:43.284Z,11.24
2023-02-17T16:28:19.049Z,11.22
2023-02-17T16:30:46.367Z,11.24
2023-02-17T16:33:13.325Z,11.24
2023-02-17T16:35:42.808Z,11.31
2023-02-17T16:38:38.566Z,11.31
2023-02-17T16:41:05.408Z,11.31
2023-02-17T16:43:31.937Z,11.35
2023-02-17T16:46:01.293Z,11.38
2023-02-17T16:48:30.454Z,11.38
2023-02-17T16:50:57.536Z,11.27
2023-02-17T16:53:24.498Z,11.20
2023-02-17T16:55:53.440Z,11.10
2023-02-17T16:58:23.036Z,11.06
2023-02-17T17:00:52.532Z,11.06
2023-02-17T17:03:19.922Z,11.04
2023-02-17T17:05:46.584Z,11.07
2023-02-17T17:08:16.234Z,11.13
2023-02-17T17:10:44.563Z,11.20
2023-02-17T17:13:11.661Z,11.16
2023-02-17T17:15:44.472Z,11.28
2023-02-17T17:18:18.357Z,11.37
2023-02-17T17:20:45.305Z,11.40
2023-02-17T17:23:14.813Z,11.35
2023-02-17T17:25:45.593Z,11.35
2023-02-17T17:28:19.471Z,11.41
2023-02-17T17:30:46.663Z,11.35
2023-02-17T17:33:13.465Z,11.35
2023-02-17T17:35:40.095Z,11.30
2023-02-17T17:38:06.977Z,11.31
2023-02-17T17:40:56.210Z,11.28
2023-02-17T17:43:23.589Z,11.35
2023-02-17T17:45:51.579Z,11.31
2023-02-17T17:48:19.002Z,11.06
2023-02-17T17:50:45.822Z,10.40
2023-02-17T17:53:12.434Z,10.04
2023-02-17T17:55:38.986Z,9.84
2023-02-17T17:58:05.557Z,9.73
2023-02-17T18:00:32.295Z,9.60
2023-02-17T18:02:58.892Z,9.53
2023-02-17T18:05:25.662Z,9.46
2023-02-17T18:07:52.592Z,9.43
2023-02-17T18:10:19.228Z,9.35
2023-02-17T18:12:47.840Z,9.28
2023-02-17T18:15:15.974Z,9.38
2023-02-17T18:17:43.167Z,9.32
2023-02-17T18:20:11.884Z,9.22
2023-02-17T18:22:39.138Z,9.21
2023-02-17T18:25:06.652Z,9.16
2023-02-17T18:27:44.966Z,9.18
2023-02-17T18:30:14.786Z,9.24
2023-02-17T18:32:44.224Z,9.19
2023-02-17T18:35:11.727Z,9.10
2023-02-17T18:37:40.176Z,9.08
2023-02-17T18:40:12.418Z,9.01
2023-02-17T18:42:42.266Z,8.91
2023-02-17T18:45:09.464Z,8.97
2023-02-17T18:47:36.061Z,8.94
2023-02-17T18:50:03.255Z,8.87
2023-02-17T18:52:29.783Z,8.75
2023-02-17T18:54:56.377Z,8.75
2023-02-17T18:57:22.946Z,8.71
2023-02-17T18:59:50.135Z,8.63
2023-02-17T19:02:16.910Z,8.65
2023-02-17T19:04:43.550Z,8.68
2023-02-17T19:07:10.683Z,8.63
2023-02-17T19:09:42.245Z,8.59
2023-02-17T19:12:13.316Z,8.54
2023-02-17T19:14:41.016Z,8.47
2023-02-17T19:17:09.897Z,8.44
2023-02-17T19:19:37.623Z,8.39
2023-02-17T19:22:08.118Z,8.42
2023-02-17T19:24:36.092Z,8.40
2023-02-17T19:27:02.874Z,8.34
2023-02-17T19:29:29.577Z,8.34
2023-02-17T19:31:58.207Z,8.22
2023-02-17T19:34:25.416Z,8.25
2023-02-17T19:36:52.050Z,8.15
2023-02-17T19:39:18.844Z,8.03
2023-02-17T19:41:45.650Z,8.03
2023-02-17T19:44:13.164Z,7.95
2023-02-17T19:46:40.644Z,8.01
2023-02-17T19:49:07.627Z,8.05
2023-02-17T19:51:34.566Z,8.02
2023-02-17T19:54:01.932Z,8.01
2023-02-17T19:56:31.446Z,8.03
2023-02-17T19:58:58.783Z,8.06
2023-02-17T20:01:28.715Z,8.03
2023-02-17T20:03:56.904Z,7.98
2023-02-17T20:06:28.190Z,7.95
2023-02-17T20:09:01.195Z,7.96
2023-02-17T20:11:29.358Z,7.91
2023-02-17T20:13:58.078Z,7.79
2023-02-17T20:16:25.236Z,7.79
2023-02-17T20:18:51.862Z,7.79
2023-02-17T20:21:28.093Z,7.78
2023-02-17T20:23:55.074Z,7.71
2023-02-17T20:26:25.370Z,7.64
2023-02-17T20:28:52.606Z,7.64
2023-02-17T20:31:19.878Z,7.60
2023-02-17T20:33:46.827Z,7.64
2023-02-17T20:36:13.505Z,7.75
2023-02-17T20:38:40.886Z,7.74
2023-02-17T20:41:09.421Z,7.78
2023-02-17T20:43:38.130Z,7.81
2023-02-17T20:46:05.480Z,7.70
2023-02-17T20:48:32.861Z,7.72
2023-02-17T20:50:59.809Z,7.68
2023-02-17T20:53:26.950Z,7.65
2023-02-17T20:55:54.280Z,7.61
2023-02-17T20:58:20.878Z,7.61
2023-02-17T21:00:47.669Z,7.60
2023-02-17T21:03:14.653Z,7.60
2023-02-17T21:05:41.442Z,7.54
2023-02-17T21:08:08.114Z,7.48
2023-02-17T21:10:34.944Z,7.44
2023-02-17T21:13:01.675Z,7.35
2023-02-17T21:15:28.407Z,7.33
2023-02-17T21:17:55.060Z,7.34
2023-02-17T21:20:22.263Z,7.26
2023-02-17T21:22:49.703Z,7.28
2023-02-17T21:25:16.286Z,7.28
2023-02-17T21:27:43.099Z,7.30
2023-02-17T21:30:10.851Z,7.19
2023-02-17T21:32:38.532Z,7.14
2023-02-17T21:35:06.301Z,7.09
2023-02-17T21:37:33.975Z,7.03
2023-02-17T21:40:00.537Z,7.10
2023-02-17T21:42:46.111Z,7.10
2023-02-17T21:45:12.966Z,7.13
2023-02-17T21:47:39.594Z,7.12
2023-02-17T21:50:06.928Z,7.17
2023-02-17T21:52:33.489Z,7.22
2023-02-17T21:55:00.956Z,7.24
2023-02-17T21:57:27.608Z,7.27
2023-02-17T21:59:54.266Z,7.27
2023-02-17T22:02:20.829Z,7.26
2023-02-17T22:04:47.435Z,7.24
2023-02-17T22:07:14.023Z,7.17
2023-02-17T22:09:40.680Z,7.16
2023-02-17T22:12:07.489Z,7.16
2023-02-17T22:14:33.996Z,7.20
2023-02-17T22:17:01.023Z,7.23
2023-02-17T22:19:31.281Z,7.22
2023-02-17T22:21:58.387Z,7.22
2023-02-17T22:24:27.181Z,7.20
2023-02-17T22:26:54.451Z,7.23
2023-02-17T22:29:21.062Z,7.19
2023-02-17T22:31:50.057Z,7.23
2023-02-17T22:34:16.618Z,7.19
2023-02-17T22:36:43.327Z,7.20
2023-02-17T22:39:09.994Z,7.14
2023-02-17T22:41:36.861Z,7.14
2023-02-17T22:44:04.033Z,7.10
2023-02-17T22:46:31.018Z,7.07
2023-02-17T22:48:58.598Z,6.99
2023-02-17T22:51:31.281Z,7.02
2023-02-17T22:54:00.666Z,7.03
2023-02-17T22:56:27.277Z,7.04
2023-02-17T22:58:57.822Z,7.04
2023-02-17T23:01:24.971Z,7.03
2023-02-17T23:03:53.931Z,7.06
2023-02-17T23:06:22.123Z,6.95
2023-02-17T23:08:49.394Z,6.92
2023-02-17T23:11:19.331Z,6.83
2023-02-17T23:13:46.075Z,6.79
2023-02-17T23:16:18.799Z,6.73
2023-02-17T23:18:45.419Z,6.72
2023-02-17T23:21:13.194Z,6.71
2023-02-17T23:23:39.739Z,6.71
2023-02-17T23:26:06.868Z,6.73
2023-02-17T23:28:33.660Z,6.71
2023-02-17T23:31:00.597Z,6.69
2023-02-17T23:33:27.446Z,6.73
2023-02-17T23:35:54.020Z,6.71
2023-02-17T23:38:21.620Z,6.67
2023-02-17T23:40:52.826Z,6.67
2023-02-17T23:43:21.119Z,6.69
2023-02-17T23:45:48.372Z,6.65
2023-02-17T23:48:15.715Z,6.64
2023-02-17T23:50:42.723Z,6.69
2023-02-17T23:53:09.458Z,6.67
2023-02-17T23:55:36.052Z,6.71
2023-02-17T23:58:02.701Z,6.69
